Royal Melbourne — WDC2865 — position and weather

sailwx.info

Track history (hours):
 
Tides and Currents Weather Stations Pressure Air Temp Water Temp Dewpoint Dewpoint Depression Visibility Wind Speed Wind Dir Waves Ship Positions

Royal Melbourne

Owner: Harley Marine Services, Inc, Seattle, WA. More information available from US FCC via Universal Licensing System and Coast Guard Vessel Documentation Center.

Last reported at 2016-Oct-01 04:33 UTC. Time now 2016-Oct-01 12:12 UTC.
Position N 37°48' W 122°17'.

Length 30 m; draft 2 m.

Type: Tug. MMSI: 366998830.

Date/timePositionNaut miles runAvg speedWind from/ knotsBaromVisibWave heightAir tempDewpointWater temp
2016-Oct-01 04:33N 37°48' W 122°17'0 0.0
2016-Oct-01 03:33N 37°48' W 122°17'4 1.2
2016-Oct-01 00:31N 37°45' W 122°21'0 0.0
2016-Sep-30 22:31N 37°45' W 122°21'0 0.1
2016-Sep-30 20:33N 37°45' W 122°20'4 1.2
2016-Sep-30 17:34N 37°48' W 122°17'0 0.0
2016-Sep-30 16:33N 37°48' W 122°17'7 3.5
2016-Sep-30 14:33N 37°52' W 122°24'3 3.4
2016-Sep-30 13:33N 37°55' W 122°22'0 0.0
2016-Sep-30 10:32N 37°55' W 122°22'3 1.6
2016-Sep-30 08:34N 37°53' W 122°25'4 2.0
2016-Sep-30 06:34N 37°48' W 122°24'6 1.5
2016-Sep-30 02:32N 37°48' W 122°17'6 2.0
2016-Sep-29 23:32N 37°48' W 122°24'0 0.0
2016-Sep-29 21:33N 37°48' W 122°24'2 2.4
2016-Sep-29 20:33N 37°47' W 122°22'2 1.7
2016-Sep-29 19:33N 37°46' W 122°20'0 0.0
2016-Sep-29 16:24N 37°46' W 122°20'0 0.0
2016-Sep-29 15:33N 37°46' W 122°20'0 0.0
2016-Sep-29 14:33N 37°46' W 122°20'0 0.1
2016-Sep-29 13:33N 37°46' W 122°20'3 0.6
2016-Sep-29 08:31N 37°48' W 122°17'0 0.0
2016-Sep-29 07:31N 37°48' W 122°17'0 0.0
2016-Sep-29 00:33N 37°48' W 122°17'0 0.0
2016-Sep-28 21:33N 37°48' W 122°17'8 3.9
2016-Sep-28 19:33N 37°53' W 122°24'3 0.9
2016-Sep-28 16:33N 37°55' W 122°22'0 0.0
2016-Sep-28 15:33N 37°55' W 122°22'8 2.7
2016-Sep-28 12:33N 37°47' W 122°22'3 0.7
2016-Sep-28 08:32N 37°44' W 122°20'0 0.1
2016-Sep-28 03:33N 37°44' W 122°20'5 4.8
2016-Sep-28 02:33N 37°49' W 122°23'6 6.0
2016-Sep-28 01:33N 37°54' W 122°24'2 1.0
2016-Sep-27 23:32N 37°55' W 122°22'0 0.0
2016-Sep-27 19:31N 37°55' W 122°22'0 0.0
2016-Sep-27 14:19N 37°55' W 122°22'0 0.0
2016-Sep-27 13:31N 37°55' W 122°22'0 0.0
2016-Sep-27 10:31N 37°55' W 122°22'0 0.0
2016-Sep-27 00:31N 37°55' W 122°22'0 0.0
2016-Sep-26 20:31N 37°55' W 122°22'4 3.7
2016-Sep-26 19:33N 37°52' W 122°24'7 1.7
2016-Sep-26 15:32N 37°48' W 122°17'0 0.0
2016-Sep-26 13:32N 37°48' W 122°17'0 0.0
2016-Sep-26 11:32N 37°48' W 122°17'0 0.0
2016-Sep-26 08:31N 37°48' W 122°17'5 0.8
2016-Sep-26 02:32N 37°44' W 122°21'0 0.1
2016-Sep-26 01:19N 37°44' W 122°21'1 0.6
2016-Sep-26 00:25N 37°44' W 122°20'0 0.1
2016-Sep-25 21:31N 37°44' W 122°20'5 1.2
2016-Sep-25 17:25N 37°48' W 122°24'0 0.0
2016-Sep-25 16:31N 37°48' W 122°24'0 0.0
2016-Sep-25 15:07N 37°48' W 122°24'0 0.1
2016-Sep-25 14:31N 37°48' W 122°24'6 3.1
2016-Sep-25 12:33N 37°54' W 122°23'1 1.2
2016-Sep-25 11:31N 37°55' W 122°22'0 0.0
2016-Sep-25 10:28N 37°55' W 122°22'0 0.0
2016-Sep-25 09:31N 37°55' W 122°22'0 0.0
2016-Sep-25 07:31N 37°55' W 122°22'0 0.0
2016-Sep-25 04:31N 37°55' W 122°22'0 0.0
2016-Sep-25 00:31N 37°55' W 122°22'0 0.0
2016-Sep-24 22:33N 37°55' W 122°22'3 2.7
2016-Sep-24 21:33N 37°53' W 122°24'8 3.8
2016-Sep-24 19:33N 37°48' W 122°17'0 0.0
2016-Sep-24 18:33N 37°48' W 122°17'0 0.0
2016-Sep-24 17:33N 37°48' W 122°17'0 0.0
2016-Sep-24 16:33N 37°48' W 122°17'0 0.0
2016-Sep-24 14:33N 37°48' W 122°17'0 0.0
2016-Sep-24 12:33N 37°48' W 122°17'0 0.0
2016-Sep-24 10:33N 37°48' W 122°17'0 0.0
2016-Sep-24 09:33N 37°48' W 122°17'0 0.0
2016-Sep-24 03:32N 37°48' W 122°17'0 0.0
2016-Sep-24 02:32N 37°48' W 122°17'0 0.0
2016-Sep-24 01:32N 37°48' W 122°17'0 0.0
2016-Sep-24 00:32N 37°48' W 122°17'0 0.0
2016-Sep-23 19:32N 37°48' W 122°17'0 0.0
2016-Sep-23 17:32N 37°48' W 122°17'0 0.0
2016-Sep-23 16:32N 37°48' W 122°17'0 0.0
2016-Sep-23 15:32N 37°48' W 122°17'0 0.0
2016-Sep-23 13:32N 37°48' W 122°17'0 0.0
2016-Sep-23 09:32N 37°48' W 122°17'0 0.0
2016-Sep-23 06:32N 37°48' W 122°17'0 0.0
2016-Sep-23 04:32N 37°48' W 122°17'0 0.0
2016-Sep-23 03:32N 37°48' W 122°17'0 0.0
2016-Sep-23 02:32N 37°48' W 122°17'0 0.0
2016-Sep-23 01:32N 37°48' W 122°17'0 0.0
2016-Sep-23 00:32N 37°48' W 122°17'0 0.0
2016-Sep-22 23:31N 37°48' W 122°17'0 0.0
2016-Sep-22 20:31N 37°48' W 122°17'8 1.0
2016-Sep-22 12:31N 37°54' W 122°22'0 0.0
2016-Sep-22 04:31N 37°54' W 122°22'0 0.0
2016-Sep-22 03:31N 37°54' W 122°22'0 0.0
2016-Sep-22 00:28N 37°54' W 122°22'0 0.0
2016-Sep-21 23:22N 37°54' W 122°22'0 0.0
2016-Sep-21 22:31N 37°54' W 122°22'0 0.0
2016-Sep-21 19:33N 37°54' W 122°22'8 2.6
2016-Sep-21 16:32N 38°02' W 122°21'  
Track history (hours):
 
Tides and Currents Weather Stations Pressure Air Temp Water Temp Dewpoint Dewpoint Depression Visibility Wind Speed Wind Dir Waves Ship Positions

Royal Melbourne

Owner: Harley Marine Services, Inc, Seattle, WA. More information available from US FCC via Universal Licensing System and Coast Guard Vessel Documentation Center.

Last reported at 2016-Oct-01 04:33 UTC. Time now 2016-Oct-01 12:12 UTC.
Position N 37°48' W 122°17'.

Length 30 m; draft 2 m.

Type: Tug. MMSI: 366998830.

Date/timePositionNaut miles runAvg speedWind from/ knotsBaromVisibWave heightAir tempDewpointWater temp
2016-Oct-01 04:33N 37°48' W 122°17'0 0.0
2016-Oct-01 03:33N 37°48' W 122°17'4 1.2
2016-Oct-01 00:31N 37°45' W 122°21'0 0.0
2016-Sep-30 22:31N 37°45' W 122°21'0 0.1
2016-Sep-30 20:33N 37°45' W 122°20'4 1.2
2016-Sep-30 17:34N 37°48' W 122°17'0 0.0
2016-Sep-30 16:33N 37°48' W 122°17'7 3.5
2016-Sep-30 14:33N 37°52' W 122°24'3 3.4
2016-Sep-30 13:33N 37°55' W 122°22'0 0.0
2016-Sep-30 10:32N 37°55' W 122°22'3 1.6
2016-Sep-30 08:34N 37°53' W 122°25'4 2.0
2016-Sep-30 06:34N 37°48' W 122°24'6 1.5
2016-Sep-30 02:32N 37°48' W 122°17'6 2.0
2016-Sep-29 23:32N 37°48' W 122°24'0 0.0
2016-Sep-29 21:33N 37°48' W 122°24'2 2.4
2016-Sep-29 20:33N 37°47' W 122°22'2 1.7
2016-Sep-29 19:33N 37°46' W 122°20'0 0.0
2016-Sep-29 16:24N 37°46' W 122°20'0 0.0
2016-Sep-29 15:33N 37°46' W 122°20'0 0.0
2016-Sep-29 14:33N 37°46' W 122°20'0 0.1
2016-Sep-29 13:33N 37°46' W 122°20'3 0.6
2016-Sep-29 08:31N 37°48' W 122°17'0 0.0
2016-Sep-29 07:31N 37°48' W 122°17'0 0.0
2016-Sep-29 00:33N 37°48' W 122°17'0 0.0
2016-Sep-28 21:33N 37°48' W 122°17'8 3.9
2016-Sep-28 19:33N 37°53' W 122°24'3 0.9
2016-Sep-28 16:33N 37°55' W 122°22'0 0.0
2016-Sep-28 15:33N 37°55' W 122°22'8 2.7
2016-Sep-28 12:33N 37°47' W 122°22'3 0.7
2016-Sep-28 08:32N 37°44' W 122°20'0 0.1
2016-Sep-28 03:33N 37°44' W 122°20'5 4.8
2016-Sep-28 02:33N 37°49' W 122°23'6 6.0
2016-Sep-28 01:33N 37°54' W 122°24'2 1.0
2016-Sep-27 23:32N 37°55' W 122°22'0 0.0
2016-Sep-27 19:31N 37°55' W 122°22'0 0.0
2016-Sep-27 14:19N 37°55' W 122°22'0 0.0
2016-Sep-27 13:31N 37°55' W 122°22'0 0.0
2016-Sep-27 10:31N 37°55' W 122°22'0 0.0
2016-Sep-27 00:31N 37°55' W 122°22'0 0.0
2016-Sep-26 20:31N 37°55' W 122°22'4 3.7
2016-Sep-26 19:33N 37°52' W 122°24'7 1.7
2016-Sep-26 15:32N 37°48' W 122°17'0 0.0
2016-Sep-26 13:32N 37°48' W 122°17'0 0.0
2016-Sep-26 11:32N 37°48' W 122°17'0 0.0
2016-Sep-26 08:31N 37°48' W 122°17'5 0.8
2016-Sep-26 02:32N 37°44' W 122°21'0 0.1
2016-Sep-26 01:19N 37°44' W 122°21'1 0.6
2016-Sep-26 00:25N 37°44' W 122°20'0 0.1
2016-Sep-25 21:31N 37°44' W 122°20'5 1.2
2016-Sep-25 17:25N 37°48' W 122°24'0 0.0
2016-Sep-25 16:31N 37°48' W 122°24'0 0.0
2016-Sep-25 15:07N 37°48' W 122°24'0 0.1
2016-Sep-25 14:31N 37°48' W 122°24'6 3.1
2016-Sep-25 12:33N 37°54' W 122°23'1 1.2
2016-Sep-25 11:31N 37°55' W 122°22'0 0.0
2016-Sep-25 10:28N 37°55' W 122°22'0 0.0
2016-Sep-25 09:31N 37°55' W 122°22'0 0.0
2016-Sep-25 07:31N 37°55' W 122°22'0 0.0
2016-Sep-25 04:31N 37°55' W 122°22'0 0.0
2016-Sep-25 00:31N 37°55' W 122°22'0 0.0
2016-Sep-24 22:33N 37°55' W 122°22'3 2.7
2016-Sep-24 21:33N 37°53' W 122°24'8 3.8
2016-Sep-24 19:33N 37°48' W 122°17'0 0.0
2016-Sep-24 18:33N 37°48' W 122°17'0 0.0
2016-Sep-24 17:33N 37°48' W 122°17'0 0.0
2016-Sep-24 16:33N 37°48' W 122°17'0 0.0
2016-Sep-24 14:33N 37°48' W 122°17'0 0.0
2016-Sep-24 12:33N 37°48' W 122°17'0 0.0
2016-Sep-24 10:33N 37°48' W 122°17'0 0.0
2016-Sep-24 09:33N 37°48' W 122°17'0 0.0
2016-Sep-24 03:32N 37°48' W 122°17'0 0.0
2016-Sep-24 02:32N 37°48' W 122°17'0 0.0
2016-Sep-24 01:32N 37°48' W 122°17'0 0.0
2016-Sep-24 00:32N 37°48' W 122°17'0 0.0
2016-Sep-23 19:32N 37°48' W 122°17'0 0.0
2016-Sep-23 17:32N 37°48' W 122°17'0 0.0
2016-Sep-23 16:32N 37°48' W 122°17'0 0.0
2016-Sep-23 15:32N 37°48' W 122°17'0 0.0
2016-Sep-23 13:32N 37°48' W 122°17'0 0.0
2016-Sep-23 09:32N 37°48' W 122°17'0 0.0
2016-Sep-23 06:32N 37°48' W 122°17'0 0.0
2016-Sep-23 04:32N 37°48' W 122°17'0 0.0
2016-Sep-23 03:32N 37°48' W 122°17'0 0.0
2016-Sep-23 02:32N 37°48' W 122°17'0 0.0
2016-Sep-23 01:32N 37°48' W 122°17'0 0.0
2016-Sep-23 00:32N 37°48' W 122°17'0 0.0
2016-Sep-22 23:31N 37°48' W 122°17'0 0.0
2016-Sep-22 20:31N 37°48' W 122°17'8 1.0
2016-Sep-22 12:31N 37°54' W 122°22'0 0.0
2016-Sep-22 04:31N 37°54' W 122°22'0 0.0
2016-Sep-22 03:31N 37°54' W 122°22'0 0.0
2016-Sep-22 00:28N 37°54' W 122°22'0 0.0
2016-Sep-21 23:22N 37°54' W 122°22'0 0.0
2016-Sep-21 22:31N 37°54' W 122°22'0 0.0
2016-Sep-21 19:33N 37°54' W 122°22'8 2.6
2016-Sep-21 16:32N 38°02' W 122°21'  

Dump ship's entire track history